Time;durP1;ratioP1;P1;durP2;ratioP2;P2;SDS_P1;SDS_P2;PMS_P1;PMS_P2;Temp;Humidity;BMP_temperature;BMP_pressure;BME280_temperature;BME280_humidity;BME280_pressure;Samples;Min_cycle;Max_cycle;Signal;HPM_P1;HPM_P2
2022/10/15 00:01:21;;;;;;;41.50;25.90;;;;;;;10.91;88.13;98399.08;106592;1310;22858;-69
2022/10/15 00:03:48;;;;;;;39.70;26.50;;;;;;;10.88;88.16;98398.91;106600;1309;22765;-69
2022/10/15 00:06:19;;;;;;;43.40;28.60;;;;;;;10.85;88.11;98397.84;106459;1296;139306;-70
2022/10/15 00:08:46;;;;;;;42.70;26.90;;;;;;;10.81;88.25;98393.15;106510;1313;22799;-69
2022/10/15 00:11:17;;;;;;;48.00;27.50;;;;;;;10.78;88.19;98395.88;106439;1311;138521;-70
2022/10/15 00:13:44;;;;;;;44.80;28.10;;;;;;;10.75;88.56;98395.61;106535;1313;22092;-69
2022/10/15 00:16:15;;;;;;;42.20;28.90;;;;;;;10.71;88.50;98395.92;106412;1296;138440;-70
2022/10/15 00:18:42;;;;;;;42.50;28.90;;;;;;;10.66;88.73;98396.55;106545;1312;23241;-69
2022/10/15 00:21:11;;;;;;;45.90;27.70;;;;;;;10.61;88.74;98390.42;106809;1297;23076;-69
2022/10/15 00:23:38;;;;;;;;;;;;;;;10.57;89.00;98390.14;106502;1304;138488;-69
2022/10/15 00:26:07;;;;;;;47.90;26.10;;;;;;;10.53;89.16;98386.98;106582;1311;22093;-70
2022/10/15 00:28:34;;;;;;;;;;;;;;;10.50;89.35;98385.33;106494;1295;138695;-69
2022/10/15 00:31:05;;;;;;;47.30;28.70;;;;;;;10.46;89.41;98383.04;106508;1308;22279;-69
2022/10/15 00:33:32;;;;;;;45.00;26.50;;;;;;;10.43;89.64;98377.12;106559;1312;22265;-69
2022/10/15 00:36:21;;;;;;;45.40;27.40;;;;;;;10.42;89.76;98378.94;106459;1311;138582;-70
2022/10/15 00:38:49;;;;;;;44.90;26.30;;;;;;;10.42;89.91;98377.14;106523;1298;22116;-69
2022/10/15 00:41:19;;;;;;;50.90;29.00;;;;;;;10.42;90.22;98376.44;106406;1312;139016;-69
2022/10/15 00:43:52;;;;;;;48.20;30.40;;;;;;;10.43;91.01;98382.01;106590;1310;22168;-70
2022/10/15 00:46:34;;;;;;;45.40;28.80;;;;;;;10.45;90.87;98379.54;106429;1310;138529;-69
2022/10/15 00:49:17;;;;;;;49.50;28.70;;;;;;;10.48;91.35;98376.70;106674;1295;22087;-70
2022/10/15 00:51:50;;;;;;;48.90;29.70;;;;;;;10.50;91.33;98370.91;106678;1310;22125;-70
2022/10/15 00:54:19;;;;;;;46.40;29.30;;;;;;;10.53;91.40;98371.98;106819;1288;138395;-69
2022/10/15 00:56:48;;;;;;;46.70;30.00;;;;;;;10.55;91.55;98371.81;106670;1309;22910;-69
2022/10/15 00:59:18;;;;;;;51.00;28.70;;;;;;;10.56;91.54;98366.48;106754;1296;138413;-70
2022/10/15 01:01:46;;;;;;;43.80;29.10;;;;;;;10.57;91.68;98364.50;106624;1310;22054;-69
2022/10/15 01:04:13;;;;;;;44.20;29.10;;;;;;;10.59;91.68;98357.61;106418;1313;138509;-70
2022/10/15 01:06:40;;;;;;;44.00;29.40;;;;;;;10.62;92.21;98351.98;106621;1310;22110;-70
2022/10/15 01:09:09;;;;;;;47.50;29.30;;;;;;;10.63;92.07;98349.34;106466;1299;22161;-69
2022/10/15 01:11:42;;;;;;;43.90;28.70;;;;;;;10.65;91.86;98347.67;106581;1310;138665;-70
2022/10/15 01:14:28;;;;;;;44.10;27.40;;;;;;;10.67;92.20;98346.29;106578;1313;22144;-69
2022/10/15 01:17:39;;;;;;;46.80;27.40;;;;;;;10.67;92.09;98346.73;106588;1310;138661;-69
2022/10/15 01:20:19;;;;;;;44.90;27.40;;;;;;;10.68;91.86;98344.24;106603;1310;22865;-69
2022/10/15 01:22:52;;;;;;;41.60;27.40;;;;;;;10.69;91.99;98344.84;106472;1310;138589;-69
2022/10/15 01:25:28;;;;;;;43.30;25.90;;;;;;;10.69;91.83;98346.48;106567;1310;22059;-70
2022/10/15 01:28:28;;;;;;;41.80;25.20;;;;;;;10.68;92.03;98345.76;106614;1296;22212;-69
2022/10/15 01:31:02;;;;;;;43.70;26.30;;;;;;;10.65;91.61;98345.83;106589;1305;22301;-69
2022/10/15 01:33:53;;;;;;;42.10;26.20;;;;;;;10.63;91.36;98341.66;106560;1310;22953;-70
2022/10/15 01:36:31;;;;;;;37.00;24.30;;;;;;;10.59;91.01;98341.92;106446;1310;141564;-69
2022/10/15 01:39:10;;;;;;;44.70;25.20;;;;;;;10.55;91.23;98346.88;106652;1296;22367;-70
2022/10/15 01:41:43;;;;;;;42.50;25.40;;;;;;;10.51;90.88;98343.04;106402;1298;138786;-70
2022/10/15 01:44:29;;;;;;;37.30;24.10;;;;;;;10.47;90.80;98346.41;106499;1311;22243;-70
2022/10/15 01:47:33;;;;;;;39.70;24.70;;;;;;;10.44;90.85;98345.60;106653;1303;138629;-69
2022/10/15 01:50:01;;;;;;;37.80;24.00;;;;;;;10.41;90.77;98343.70;106899;1291;22079;-69
2022/10/15 01:52:36;;;;;;;37.10;25.30;;;;;;;10.37;90.69;98345.38;106441;1310;139159;-69
2022/10/15 01:55:05;;;;;;;38.10;24.60;;;;;;;10.33;90.79;98337.73;106572;1310;22169;-70
2022/10/15 01:57:37;;;;;;;40.40;24.70;;;;;;;10.30;90.56;98336.08;106635;1310;22062;-70
2022/10/15 02:00:05;;;;;;;39.10;25.50;;;;;;;10.23;90.72;98332.70;106446;1302;138681;-69
2022/10/15 02:02:39;;;;;;;37.50;22.60;;;;;;;10.20;90.74;98333.95;106562;1305;22084;-70
2022/10/15 02:05:15;;;;;;;38.10;24.20;;;;;;;10.16;90.88;98331.36;106452;1313;138384;-70
2022/10/15 02:08:02;;;;;;;38.70;23.80;;;;;;;10.12;91.18;98326.46;106812;1303;22051;-69
2022/10/15 02:10:48;;;;;;;39.40;23.70;;;;;;;10.08;91.13;98321.88;106445;1302;138950;-70
2022/10/15 02:13:30;;;;;;;39.80;24.80;;;;;;;10.05;91.10;98315.41;106539;1310;22119;-70
2022/10/15 02:16:15;;;;;;;44.60;25.60;;;;;;;10.04;91.36;98311.20;106843;1294;22875;-69
2022/10/15 02:19:01;;;;;;;42.20;25.60;;;;;;;10.02;91.26;98316.45;106670;1310;22111;-70
2022/10/15 02:21:45;;;;;;;42.60;25.30;;;;;;;10.03;91.98;98313.84;106518;1299;22836;-69
2022/10/15 02:24:18;;;;;;;42.50;26.90;;;;;;;10.02;91.53;98314.64;106375;1313;138649;-70
2022/10/15 02:26:46;;;;;;;40.70;24.60;;;;;;;10.02;91.95;98313.95;106530;1313;22673;-70
2022/10/15 02:29:17;;;;;;;;;;;;;;;10.01;91.62;98315.77;106416;1311;138850;-69
2022/10/15 02:31:46;;;;;;;44.70;26.10;;;;;;;9.98;91.80;98317.73;106634;1296;22099;-70
2022/10/15 02:34:19;;;;;;;44.20;26.10;;;;;;;9.96;91.82;98323.88;106565;1311;22272;-70
2022/10/15 02:36:46;;;;;;;42.70;24.80;;;;;;;9.93;92.08;98317.69;106578;1310;22230;-70
2022/10/15 02:39:20;;;;;;;38.00;23.10;;;;;;;9.93;91.89;98317.95;106561;1310;22164;-69
2022/10/15 02:41:50;;;;;;;39.80;23.60;;;;;;;9.93;91.89;98319.05;106378;1296;138379;-70
2022/10/15 02:44:17;;;;;;;42.90;24.70;;;;;;;9.93;92.05;98317.23;106524;1305;22384;-69
2022/10/15 02:46:43;;;;;;;43.90;24.90;;;;;;;9.92;91.78;98310.66;106412;1309;138614;-69
2022/10/15 02:49:11;;;;;;;47.80;26.30;;;;;;;9.93;92.00;98309.14;106468;1313;22208;-70
2022/10/15 02:51:38;;;;;;;44.10;25.00;;;;;;;9.94;92.17;98309.98;106485;1296;22170;-70
2022/10/15 02:54:06;;;;;;;38.10;24.20;;;;;;;9.95;92.25;98309.52;106467;1310;138357;-70
2022/10/15 02:56:33;;;;;;;40.20;23.60;;;;;;;9.97;92.52;98301.00;106389;1310;22152;-70
2022/10/15 02:59:00;;;;;;;43.00;24.50;;;;;;;9.99;92.70;98299.13;106304;1312;138461;-70
2022/10/15 03:01:29;;;;;;;40.40;23.40;;;;;;;10.00;92.57;98298.71;106416;1298;22551;-70
2022/10/15 03:03:56;;;;;;;38.30;23.30;;;;;;;10.02;92.85;98296.74;106537;1312;22813;-71
2022/10/15 03:06:23;;;;;;;39.50;23.90;;;;;;;10.04;92.84;98289.92;106364;1313;138690;-69
2022/10/15 03:08:50;;;;;;;40.60;24.70;;;;;;;10.06;93.08;98281.41;106460;1311;23106;-69
2022/10/15 03:11:17;;;;;;;40.00;24.40;;;;;;;10.08;92.93;98281.83;106700;1298;138357;-70
2022/10/15 03:13:44;;;;;;;42.30;24.20;;;;;;;10.08;93.11;98283.02;106774;1306;22113;-70
2022/10/15 03:16:14;;;;;;;44.30;24.90;;;;;;;10.11;93.01;98281.55;106477;1312;22108;-69
2022/10/15 03:18:41;;;;;;;44.00;25.90;;;;;;;10.13;93.34;98284.17;106393;1313;138796;-70
2022/10/15 03:21:09;;;;;;;42.70;25.40;;;;;;;10.14;92.97;98289.59;106490;1304;22197;-69
2022/10/15 03:23:36;;;;;;;40.00;24.70;;;;;;;10.15;93.11;98292.00;106538;1297;138424;-70
2022/10/15 03:26:07;;;;;;;39.10;25.80;;;;;;;10.15;92.57;98291.20;106497;1311;23208;-70
2022/10/15 03:28:34;;;;;;;39.70;25.90;;;;;;;10.11;92.24;98288.83;106440;1311;139110;-70
2022/10/15 03:31:01;;;;;;;41.80;26.60;;;;;;;10.09;91.73;98288.64;106420;1302;22150;-69
2022/10/15 03:33:29;;;;;;;44.60;26.20;;;;;;;10.05;91.24;98292.45;106504;1313;22160;-70
2022/10/15 03:35:56;;;;;;;41.50;24.50;;;;;;;10.01;91.10;98290.70;106405;1312;139343;-70
2022/10/15 03:38:23;;;;;;;40.30;25.40;;;;;;;9.97;91.02;98290.07;106486;1313;22163;-69
2022/10/15 03:40:51;;;;;;;39.30;24.60;;;;;;;9.94;90.90;98288.00;106350;1308;138594;-70
2022/10/15 03:43:24;;;;;;;39.80;24.00;;;;;;;9.92;90.64;98284.42;106429;1307;22342;-69
2022/10/15 03:45:52;;;;;;;42.90;26.00;;;;;;;9.88;90.98;98280.55;106474;1312;22133;-69
2022/10/15 03:48:21;;;;;;;40.20;25.10;;;;;;;9.84;91.14;98279.07;106412;1312;138385;-69
2022/10/15 03:50:48;;;;;;;38.00;23.60;;;;;;;9.81;91.08;98279.33;106446;1312;22210;-70
2022/10/15 03:53:15;;;;;;;42.90;23.80;;;;;;;9.77;91.49;98277.31;106632;1291;138355;-70
2022/10/15 03:55:42;;;;;;;40.40;24.60;;;;;;;9.71;91.35;98276.07;106433;1294;22485;-69
2022/10/15 03:58:09;;;;;;;42.30;24.90;;;;;;;9.65;90.97;98266.88;106474;1313;22137;-69
2022/10/15 04:00:43;;;;;;;38.80;22.60;;;;;;;9.60;90.99;98268.58;106384;1299;138319;-69
2022/10/15 04:03:10;;;;;;;42.90;25.40;;;;;;;9.55;91.21;98262.28;106447;1304;22199;-69
2022/10/15 04:05:37;;;;;;;40.80;23.60;;;;;;;9.52;91.49;98257.42;106686;1296;138749;-70
2022/10/15 04:08:06;;;;;;;36.30;23.70;;;;;;;9.49;91.94;98258.10;106479;1311;22139;-70
2022/10/15 04:10:35;;;;;;;42.20;24.30;;;;;;;9.48;92.16;98258.89;106388;1312;138429;-70
2022/10/15 04:13:02;;;;;;;39.10;23.90;;;;;;;9.45;92.01;98260.99;106759;1296;22039;-69
2022/10/15 04:15:32;;;;;;;43.70;23.60;;;;;;;9.42;92.46;98264.32;106779;1302;22276;-70
2022/10/15 04:18:03;;;;;;;37.30;23.10;;;;;;;9.41;92.69;98265.15;106431;1312;138848;-70
2022/10/15 04:20:30;;;;;;;38.50;22.10;;;;;;;9.38;92.78;98261.79;106449;1313;22325;-70
2022/10/15 04:23:10;;;;;;;37.40;22.70;;;;;;;9.37;93.00;98268.40;106346;1302;138661;-70
2022/10/15 04:25:38;;;;;;;39.50;23.40;;;;;;;9.36;92.84;98262.83;106659;1291;22957;-70
2022/10/15 04:28:05;;;;;;;38.20;24.60;;;;;;;9.35;92.99;98263.98;106486;1312;22115;-70
2022/10/15 04:30:33;;;;;;;38.90;23.30;;;;;;;9.34;92.98;98261.07;106431;1312;138167;-70
2022/10/15 04:33:00;;;;;;;39.60;22.70;;;;;;;9.32;93.04;98255.26;106636;1297;22814;-69
2022/10/15 04:35:28;;;;;;;40.70;22.90;;;;;;;9.32;93.04;98259.50;106616;1309;138275;-70
2022/10/15 04:38:09;;;;;;;34.20;21.90;;;;;;;9.30;93.03;98258.77;106542;1312;22975;-70
2022/10/15 04:41:03;;;;;;;37.40;23.10;;;;;;;9.28;93.15;98266.09;106367;1313;139073;-70
2022/10/15 04:43:41;;;;;;;38.80;22.70;;;;;;;9.28;93.55;98266.43;106451;1297;22105;-70
2022/10/15 04:46:09;;;;;;;41.70;23.90;;;;;;;9.28;93.50;98270.03;106651;1290;22200;-70
2022/10/15 04:48:37;;;;;;;39.10;23.30;;;;;;;9.27;93.38;98266.32;106312;1312;138167;-69
2022/10/15 04:51:11;;;;;;;37.10;22.80;;;;;;;9.26;93.12;98260.70;106469;1309;22021;-69
2022/10/15 04:53:54;;;;;;;33.70;20.80;;;;;;;9.24;92.90;98256.89;106322;1305;138187;-70
2022/10/15 04:56:22;;;;;;;32.50;21.10;;;;;;;9.20;92.98;98256.71;106489;1310;22162;-69
2022/10/15 04:58:50;;;;;;;41.50;23.60;;;;;;;9.19;93.27;98255.71;106715;1294;138446;-70
2022/10/15 05:01:19;;;;;;;37.00;22.60;;;;;;;9.17;93.36;98256.96;106461;1303;22263;-70
2022/10/15 05:03:59;;;;;;;38.50;22.40;;;;;;;9.16;93.54;98258.65;106461;1311;22817;-70
2022/10/15 05:06:26;;;;;;;36.30;22.80;;;;;;;9.16;93.49;98259.57;106314;1312;138326;-70
2022/10/15 05:08:57;;;;;;;38.80;23.50;;;;;;;9.16;93.59;98258.15;106453;1310;22255;-70
2022/10/15 05:11:28;;;;;;;38.70;23.60;;;;;;;9.17;93.57;98255.33;106544;1299;138219;-69
2022/10/15 05:13:57;;;;;;;35.60;22.00;;;;;;;9.17;93.52;98251.53;106402;1301;22887;-69
2022/10/15 05:16:26;;;;;;;34.40;23.10;;;;;;;9.17;93.60;98247.19;106403;1311;138409;-69
2022/10/15 05:18:59;;;;;;;34.10;22.90;;;;;;;9.18;93.83;98253.21;106449;1301;22090;-70
2022/10/15 05:21:27;;;;;;;31.50;20.20;;;;;;;9.20;93.81;98251.17;106507;1310;22198;-70
2022/10/15 05:23:57;;;;;;;36.00;21.20;;;;;;;9.21;93.79;98255.33;106333;1302;138716;-70
2022/10/15 05:26:43;;;;;;;37.40;20.10;;;;;;;9.22;93.91;98255.51;106461;1310;22332;-70
2022/10/15 05:29:11;;;;;;;33.60;20.90;;;;;;;9.25;94.17;98251.36;106351;1310;138458;-70
2022/10/15 05:31:38;;;;;;;30.30;18.80;;;;;;;9.26;94.15;98246.50;106443;1311;22290;-70
2022/10/15 05:34:11;;;;;;;40.10;21.50;;;;;;;9.31;94.24;98243.52;106727;1295;22278;-70
2022/10/15 05:36:44;;;;;;;33.30;19.90;;;;;;;9.35;94.36;98245.70;106434;1311;22237;-70
2022/10/15 05:39:12;;;;;;;32.60;19.70;;;;;;;9.40;94.38;98245.31;106572;1300;23049;-70
2022/10/15 05:41:42;;;;;;;29.80;18.80;;;;;;;9.45;94.36;98247.84;106602;1291;138634;-70
2022/10/15 05:44:09;;;;;;;36.80;20.80;;;;;;;9.50;94.45;98249.24;106416;1304;23029;-71
2022/10/15 05:46:37;;;;;;;33.00;19.40;;;;;;;9.55;94.68;98253.84;106514;1305;138709;-70
2022/10/15 05:49:04;;;;;;;31.10;19.60;;;;;;;9.60;94.75;98252.09;106470;1310;22201;-69
2022/10/15 05:51:40;;;;;;;31.60;19.20;;;;;;;9.65;94.40;98248.05;106660;1292;22062;-70
2022/10/15 05:54:10;;;;;;;31.00;19.30;;;;;;;9.69;94.39;98249.76;106553;1289;138412;-70
2022/10/15 05:56:38;;;;;;;31.60;18.10;;;;;;;9.74;94.46;98254.67;106841;1302;22187;-70
2022/10/15 05:59:05;;;;;;;30.70;18.70;;;;;;;9.78;94.48;98253.08;106465;1310;138368;-69
2022/10/15 06:01:32;;;;;;;27.70;18.40;;;;;;;9.83;94.39;98256.26;106575;1310;22181;-69
2022/10/15 06:03:58;;;;;;;29.30;19.20;;;;;;;9.88;94.04;98255.09;106822;1293;22398;-69
2022/10/15 06:06:26;;;;;;;29.90;19.10;;;;;;;9.92;93.74;98257.22;106458;1310;138142;-69
2022/10/15 06:08:54;;;;;;;32.60;20.20;;;;;;;9.97;93.80;98250.95;106566;1310;22348;-70
2022/10/15 06:11:21;;;;;;;29.80;18.60;;;;;;;10.01;93.68;98254.06;106450;1310;138299;-70
2022/10/15 06:13:48;;;;;;;35.00;20.30;;;;;;;10.07;93.66;98263.69;106878;1288;22642;-70
2022/10/15 06:16:16;;;;;;;32.40;19.50;;;;;;;10.12;93.35;98263.49;106831;1291;22124;-70
2022/10/15 06:18:44;;;;;;;33.00;21.50;;;;;;;10.17;93.13;98264.45;106823;1303;22087;-70
2022/10/15 06:21:11;;;;;;;36.10;21.90;;;;;;;10.21;92.94;98272.63;106480;1313;22928;-70
2022/10/15 06:23:38;;;;;;;35.70;21.80;;;;;;;10.27;92.66;98273.04;106444;1310;138381;-71
2022/10/15 06:26:07;;;;;;;29.40;19.90;;;;;;;10.35;92.47;98273.25;106593;1298;22086;-70
2022/10/15 06:28:35;;;;;;;28.10;17.70;;;;;;;10.43;92.61;98275.34;106502;1310;138473;-70
2022/10/15 06:31:04;;;;;;;32.60;18.60;;;;;;;10.51;92.87;98277.86;106597;1310;22259;-70
2022/10/15 06:33:32;;;;;;;27.40;17.20;;;;;;;10.62;93.16;98276.12;106876;1302;21934;-70
2022/10/15 06:36:04;;;;;;;24.40;16.80;;;;;;;10.71;92.96;98276.74;106716;1300;138510;-70
2022/10/15 06:38:32;;;;;;;25.00;15.90;;;;;;;10.83;93.17;98279.70;106570;1294;22168;-69
2022/10/15 06:41:02;;;;;;;25.30;16.90;;;;;;;10.95;93.14;98281.38;106458;1305;138644;-70
2022/10/15 06:43:29;;;;;;;23.00;15.50;;;;;;;11.06;93.01;98286.55;106524;1310;22189;-70
2022/10/15 06:45:58;;;;;;;27.20;16.30;;;;;;;11.17;92.97;98283.41;106534;1310;22199;-70
2022/10/15 06:48:25;;;;;;;24.90;14.70;;;;;;;11.27;92.76;98285.23;106470;1310;138474;-70
2022/10/15 06:50:52;;;;;;;25.10;15.80;;;;;;;11.38;92.67;98278.59;106548;1309;23038;-70
2022/10/15 06:53:19;;;;;;;25.20;14.30;;;;;;;11.48;92.48;98280.05;106473;1310;138901;-70
2022/10/15 06:55:46;;;;;;;24.00;15.80;;;;;;;11.56;92.09;98277.16;106786;1288;22231;-70
2022/10/15 06:58:12;;;;;;;23.20;15.30;;;;;;;11.65;91.60;98272.29;106515;1310;22272;-70
2022/10/15 07:00:39;;;;;;;23.60;15.10;;;;;;;11.73;91.39;98270.25;106425;1310;138158;-69
2022/10/15 07:03:07;;;;;;;24.90;15.60;;;;;;;11.79;90.84;98267.70;106506;1311;22245;-69
2022/10/15 07:05:34;;;;;;;20.10;13.90;;;;;;;11.86;90.13;98271.25;106685;1285;138856;-70
2022/10/15 07:08:01;;;;;;;22.90;14.90;;;;;;;11.93;89.83;98264.36;106571;1310;22164;-69
2022/10/15 07:10:29;;;;;;;21.90;14.00;;;;;;;12.01;89.68;98268.09;106715;1295;138500;-70
2022/10/15 07:12:59;;;;;;;20.80;14.60;;;;;;;12.09;89.65;98267.61;106563;1310;22092;-70
2022/10/15 07:15:27;;;;;;;23.70;14.70;;;;;;;12.18;89.49;98271.41;106819;1289;22810;-70
2022/10/15 07:17:56;;;;;;;20.50;14.10;;;;;;;12.26;89.09;98268.15;106696;1296;138957;-69
2022/10/15 07:20:23;;;;;;;;;;;;;;;12.33;88.81;98269.30;106520;1310;22393;-69
2022/10/15 07:22:54;;;;;;;21.50;14.10;;;;;;;12.40;88.60;98276.61;106384;1311;124893;-71
2022/10/15 07:25:22;;;;;;;21.30;14.40;;;;;;;12.48;88.25;98276.34;106540;1310;22140;-70
2022/10/15 07:27:48;;;;;;;23.70;14.40;;;;;;;12.56;87.78;98274.92;106599;1305;22152;-69
2022/10/15 07:30:15;;;;;;;23.20;14.80;;;;;;;12.65;87.34;98277.48;106484;1310;138375;-70
2022/10/15 07:32:43;;;;;;;20.50;13.70;;;;;;;12.74;86.93;98283.03;106594;1310;22133;-69
2022/10/15 07:35:09;;;;;;;22.30;14.20;;;;;;;12.83;86.64;98279.80;106753;1284;138556;-69
2022/10/15 07:37:36;;;;;;;20.30;14.00;;;;;;;12.93;86.10;98282.71;106518;1299;22083;-69
2022/10/15 07:40:04;;;;;;;21.40;14.10;;;;;;;13.02;85.77;98280.02;106552;1312;22128;-69
2022/10/15 07:42:31;;;;;;;21.20;13.90;;;;;;;13.12;85.79;98282.86;106436;1310;138508;-69
2022/10/15 07:44:58;;;;;;;18.00;13.20;;;;;;;13.23;85.59;98280.45;106550;1311;22289;-69
2022/10/15 07:47:25;;;;;;;21.60;14.70;;;;;;;13.32;84.85;98284.17;106735;1294;138331;-70
2022/10/15 07:49:52;;;;;;;22.30;13.30;;;;;;;13.41;84.58;98283.88;106862;1302;22149;-69
2022/10/15 07:52:18;;;;;;;20.30;13.70;;;;;;;13.49;84.03;98284.30;106504;1308;138490;-72
2022/10/15 07:54:45;;;;;;;20.90;13.30;;;;;;;13.59;83.79;98281.66;106615;1310;22091;-69
2022/10/15 07:57:14;;;;;;;21.80;14.10;;;;;;;13.68;83.56;98280.64;106833;1289;22736;-70
2022/10/15 07:59:41;;;;;;;22.80;13.80;;;;;;;13.78;83.08;98282.09;106717;1302;138429;-69
2022/10/15 08:02:17;;;;;;;19.10;14.20;;;;;;;13.88;82.45;98283.46;106550;1311;22081;-69
2022/10/15 08:04:44;;;;;;;16.50;13.00;;;;;;;13.99;81.95;98279.94;106709;1288;138490;-68
2022/10/15 08:07:11;;;;;;;20.30;13.60;;;;;;;14.10;81.55;98283.51;106552;1294;22261;-68
2022/10/15 08:09:38;;;;;;;17.00;13.20;;;;;;;14.19;81.35;98282.26;106855;1295;22039;-68
2022/10/15 08:12:05;;;;;;;18.10;14.30;;;;;;;14.33;81.18;98282.27;106506;1310;138711;-68
2022/10/15 08:14:33;;;;;;;18.40;14.00;;;;;;;14.47;80.67;98281.16;106614;1310;22174;-68
2022/10/15 08:17:02;;;;;;;15.80;11.80;;;;;;;14.62;80.13;98276.46;106482;1306;138816;-68
2022/10/15 08:19:29;;;;;;;18.70;14.20;;;;;;;14.75;79.65;98277.38;106545;1310;21982;-68
2022/10/15 08:21:56;;;;;;;18.10;13.40;;;;;;;14.89;79.13;98277.85;106569;1310;22155;-68
2022/10/15 08:24:23;;;;;;;21.00;13.20;;;;;;;15.03;78.26;98280.11;106445;1310;138468;-68
2022/10/15 08:26:50;;;;;;;18.80;13.90;;;;;;;15.15;77.43;98280.73;106545;1296;22306;-68
2022/10/15 08:29:17;;;;;;;21.90;12.90;;;;;;;15.26;77.25;98278.89;106617;1304;138554;-68
2022/10/15 08:31:44;;;;;;;17.10;13.10;;;;;;;15.37;76.54;98281.48;106869;1303;22958;-68
2022/10/15 08:34:11;;;;;;;15.20;13.00;;;;;;;15.49;75.98;98280.45;106854;1302;22214;-69
2022/10/15 08:36:38;;;;;;;17.40;11.80;;;;;;;15.60;75.64;98276.92;106493;1310;138272;-68
2022/10/15 08:39:08;;;;;;;16.90;12.30;;;;;;;15.70;75.00;98275.17;106517;1296;22129;-68
2022/10/15 08:41:45;;;;;;;18.00;12.40;;;;;;;15.82;74.32;98271.34;106723;1285;139286;-68
2022/10/15 08:44:25;;;;;;;16.30;11.80;;;;;;;15.93;73.90;98275.90;106575;1310;22095;-68
2022/10/15 08:47:06;;;;;;;21.50;12.30;;;;;;;16.03;73.93;98274.13;106431;1311;138559;-68
2022/10/15 08:49:51;;;;;;;17.50;12.90;;;;;;;16.13;73.75;98272.51;106483;1305;22193;-68
2022/10/15 08:52:35;;;;;;;16.70;13.00;;;;;;;16.22;73.55;98272.33;106489;1311;23130;-68
2022/10/15 08:55:03;;;;;;;17.50;13.20;;;;;;;16.30;73.20;98275.84;106831;1287;22063;-68
2022/10/15 08:57:48;;;;;;;15.40;12.30;;;;;;;16.35;72.64;98276.91;106853;1302;22357;-68
2022/10/15 09:00:22;;;;;;;16.70;12.00;;;;;;;16.40;71.95;98272.91;106424;1306;138419;-68
2022/10/15 09:03:10;;;;;;;14.70;10.80;;;;;;;16.45;71.87;98276.27;106575;1310;22105;-68
2022/10/15 09:05:51;;;;;;;18.30;12.50;;;;;;;16.55;71.83;98277.55;106726;1302;138493;-68
2022/10/15 09:08:47;;;;;;;18.60;12.20;;;;;;;16.63;71.42;98277.20;106567;1291;22255;-68
2022/10/15 09:11:22;;;;;;;18.40;12.30;;;;;;;16.77;71.46;98278.30;106416;1310;138569;-68
2022/10/15 09:13:50;;;;;;;17.50;12.50;;;;;;;16.87;70.66;98279.93;106612;1310;22121;-68
2022/10/15 09:16:31;;;;;;;16.60;12.60;;;;;;;16.99;70.43;98279.02;106862;1302;22348;-68
2022/10/15 09:19:03;;;;;;;16.40;12.10;;;;;;;17.10;70.28;98278.97;106572;1295;22114;-68
2022/10/15 09:21:31;;;;;;;15.20;11.90;;;;;;;17.16;69.14;98280.32;106540;1310;22205;-68
2022/10/15 09:24:01;;;;;;;17.10;11.80;;;;;;;17.22;68.94;98281.88;106458;1311;138346;-68
2022/10/15 09:26:48;;;;;;;14.90;12.10;;;;;;;17.28;68.63;98286.30;106553;1310;22204;-68
2022/10/15 09:29:17;;;;;;;16.20;11.90;;;;;;;17.38;68.86;98287.63;106456;1301;138464;-68
2022/10/15 09:31:55;;;;;;;14.00;12.00;;;;;;;17.52;68.41;98284.80;106866;1302;22300;-68
2022/10/15 09:34:42;;;;;;;16.50;12.00;;;;;;;17.69;68.32;98286.30;106610;1310;22327;-68
2022/10/15 09:37:30;;;;;;;15.30;12.80;;;;;;;17.77;67.25;98288.98;106608;1310;22756;-68
2022/10/15 09:40:29;;;;;;;14.60;10.80;;;;;;;17.88;66.29;98288.64;106593;1295;22334;-67
2022/10/15 09:42:58;;;;;;;15.90;11.90;;;;;;;17.97;65.42;98293.20;106754;1302;138323;-68
2022/10/15 09:45:25;;;;;;;15.40;12.60;;;;;;;18.01;64.79;98291.12;106603;1309;22117;-68
2022/10/15 09:47:59;;;;;;;16.90;12.40;;;;;;;18.05;64.80;98292.27;106507;1303;137634;-67
2022/10/15 09:50:36;;;;;;;14.60;11.90;;;;;;;18.11;64.05;98294.98;106830;1288;22273;-68
2022/10/15 09:53:28;;;;;;;13.70;10.90;;;;;;;18.14;63.90;98291.52;106719;1302;137844;-69
2022/10/15 09:56:09;;;;;;;17.60;13.10;;;;;;;18.14;63.86;98289.48;106837;1290;22273;-68
2022/10/15 09:58:44;;;;;;;17.50;13.10;;;;;;;18.15;63.58;98292.05;106424;1305;137904;-69
2022/10/15 10:01:20;;;;;;;16.60;12.40;;;;;;;18.15;62.72;98288.58;106527;1296;22064;-68
2022/10/15 10:03:52;;;;;;;17.20;13.10;;;;;;;18.16;62.90;98286.80;106573;1310;22323;-68
2022/10/15 10:06:22;;;;;;;13.70;10.80;;;;;;;18.18;61.40;98287.77;106718;1287;137691;-68
2022/10/15 10:08:51;;;;;;;14.60;12.50;;;;;;;18.15;60.33;98287.09;106845;1302;22158;-69
2022/10/15 10:11:20;;;;;;;15.00;12.00;;;;;;;18.14;60.38;98286.29;106387;1311;137834;-68
2022/10/15 10:13:47;;;;;;;15.00;11.60;;;;;;;18.14;60.04;98287.33;106549;1281;22112;-68
2022/10/15 10:16:16;;;;;;;14.10;11.20;;;;;;;18.13;60.13;98288.40;106847;1302;22106;-67
2022/10/15 10:18:49;;;;;;;13.60;11.40;;;;;;;18.13;60.21;98287.35;106329;1312;137857;-67
2022/10/15 10:21:25;;;;;;;12.70;10.60;;;;;;;18.11;59.76;98288.96;106553;1295;22114;-68
2022/10/15 10:23:52;;;;;;;15.40;11.30;;;;;;;18.05;58.81;98284.37;106764;1287;137686;-67
2022/10/15 10:26:19;;;;;;;17.40;11.30;;;;;;;18.01;59.21;98291.77;106535;1311;22324;-68
2022/10/15 10:28:49;;;;;;;15.60;11.50;;;;;;;17.97;59.31;98291.21;106442;1310;138308;-68
2022/10/15 10:31:17;;;;;;;16.10;11.50;;;;;;;17.94;59.39;98293.64;106516;1299;22220;-67
2022/10/15 10:33:48;;;;;;;13.70;10.10;;;;;;;17.89;59.18;98288.97;106556;1307;22177;-67
2022/10/15 10:36:35;;;;;;;13.40;9.60;;;;;;;17.82;57.74;98295.80;106737;1302;137715;-68
2022/10/15 10:39:12;;;;;;;11.50;9.10;;;;;;;17.76;56.75;98292.97;106802;1287;22946;-68
2022/10/15 10:42:00;;;;;;;11.90;10.10;;;;;;;17.73;56.53;98299.67;106436;1296;138185;-67
2022/10/15 10:44:28;;;;;;;13.20;10.20;;;;;;;17.69;56.70;98304.53;106561;1310;22884;-68
2022/10/15 10:47:12;;;;;;;10.80;9.20;;;;;;;17.66;56.87;98300.54;106740;1294;137872;-67
2022/10/15 10:49:48;;;;;;;12.30;10.10;;;;;;;17.66;57.71;98302.52;106566;1302;22256;-68
2022/10/15 10:52:21;;;;;;;15.10;11.10;;;;;;;17.70;58.61;98304.52;106806;1297;22298;-68
2022/10/15 10:55:19;;;;;;;11.50;9.40;;;;;;;17.74;58.28;98303.63;106451;1310;137817;-68
2022/10/15 10:57:49;;;;;;;10.90;9.50;;;;;;;17.79;57.97;98298.27;105885;1315;22161;-68
2022/10/15 11:00:24;;;;;;;12.10;9.50;;;;;;;17.85;57.89;98303.48;106101;1294;137551;-70
2022/10/15 11:02:52;;;;;;;15.90;9.50;;;;;;;17.97;57.96;98305.72;105881;1311;22387;-69
2022/10/15 11:05:25;;;;;;;10.40;8.80;;;;;;;18.06;57.43;98304.10;106286;1291;137707;-69
2022/10/15 11:08:11;;;;;;;11.10;8.90;;;;;;;18.14;57.22;98306.56;106285;1300;201069;-69
2022/10/15 11:10:46;;;;;;;14.30;9.70;;;;;;;18.22;56.59;98305.08;105911;1301;138396;-69
2022/10/15 11:13:33;;;;;;;12.10;9.20;;;;;;;18.32;57.05;98303.36;106378;1308;22116;-69
2022/10/15 11:16:09;;;;;;;13.50;9.40;;;;;;;18.50;56.75;98297.96;106001;1309;22345;-69
2022/10/15 11:18:45;;;;;;;9.40;8.10;;;;;;;18.57;55.68;98296.13;105838;1317;137615;-70
2022/10/15 11:21:28;;;;;;;10.10;8.40;;;;;;;18.58;54.99;98291.30;106394;1308;22107;-69
2022/10/15 11:24:20;;;;;;;11.80;8.50;;;;;;;18.59;54.95;98296.53;105910;1311;137670;-69
2022/10/15 11:27:10;;;;;;;10.30;8.30;;;;;;;18.62;54.98;98296.16;106018;1310;22219;-68
2022/10/15 11:30:04;;;;;;;10.30;7.90;;;;;;;18.66;53.97;98296.97;106343;1298;137571;-68
2022/10/15 11:32:56;;;;;;;11.50;8.60;;;;;;;18.69;53.48;98291.38;106355;1305;22271;-69